sensor_id;sensor_type;location;lat;lon;timestamp;temperature;humidity
16846;DHT22;8539;53.188;8.696;2022-08-19T00:01:23;17.10;99.90
16846;DHT22;8539;53.188;8.696;2022-08-19T00:03:50;17.10;99.90
16846;DHT22;8539;53.188;8.696;2022-08-19T00:06:17;17.10;99.90
16846;DHT22;8539;53.188;8.696;2022-08-19T00:08:43;17.10;99.90
16846;DHT22;8539;53.188;8.696;2022-08-19T00:11:10;17.20;99.90
16846;DHT22;8539;53.188;8.696;2022-08-19T00:13:36;17.20;99.90
16846;DHT22;8539;53.188;8.696;2022-08-19T00:16:05;17.20;99.90
16846;DHT22;8539;53.188;8.696;2022-08-19T00:18:33;17.20;99.90
16846;DHT22;8539;53.188;8.696;2022-08-19T00:20:59;17.20;99.90
16846;DHT22;8539;53.188;8.696;2022-08-19T00:23:26;17.20;99.90
16846;DHT22;8539;53.188;8.696;2022-08-19T00:25:53;17.20;99.90
16846;DHT22;8539;53.188;8.696;2022-08-19T00:28:19;17.10;99.90
16846;DHT22;8539;53.188;8.696;2022-08-19T00:30:46;17.10;99.90
16846;DHT22;8539;53.188;8.696;2022-08-19T00:33:12;17.20;99.90
16846;DHT22;8539;53.188;8.696;2022-08-19T00:35:39;17.20;99.90
16846;DHT22;8539;53.188;8.696;2022-08-19T00:38:06;17.20;99.90
16846;DHT22;8539;53.188;8.696;2022-08-19T00:40:34;17.20;99.90
16846;DHT22;8539;53.188;8.696;2022-08-19T00:43:01;17.20;99.90
16846;DHT22;8539;53.188;8.696;2022-08-19T00:45:28;17.20;99.90
16846;DHT22;8539;53.188;8.696;2022-08-19T00:47:58;17.20;99.90
16846;DHT22;8539;53.188;8.696;2022-08-19T00:50:24;17.20;99.90
16846;DHT22;8539;53.188;8.696;2022-08-19T00:52:51;17.20;99.90
16846;DHT22;8539;53.188;8.696;2022-08-19T00:55:22;17.20;99.90
16846;DHT22;8539;53.188;8.696;2022-08-19T00:57:56;17.20;99.90
16846;DHT22;8539;53.188;8.696;2022-08-19T01:00:25;17.20;99.90
16846;DHT22;8539;53.188;8.696;2022-08-19T01:02:56;17.20;99.90
16846;DHT22;8539;53.188;8.696;2022-08-19T01:05:26;17.30;99.90
16846;DHT22;8539;53.188;8.696;2022-08-19T01:08:01;17.30;99.90
16846;DHT22;8539;53.188;8.696;2022-08-19T01:10:33;17.30;99.90
16846;DHT22;8539;53.188;8.696;2022-08-19T01:13:03;17.30;99.90
16846;DHT22;8539;53.188;8.696;2022-08-19T01:15:40;17.30;99.90
16846;DHT22;8539;53.188;8.696;2022-08-19T01:18:11;17.30;99.90
16846;DHT22;8539;53.188;8.696;2022-08-19T01:20:39;17.30;99.90
16846;DHT22;8539;53.188;8.696;2022-08-19T01:23:06;17.30;99.90
16846;DHT22;8539;53.188;8.696;2022-08-19T01:25:39;17.30;99.90
16846;DHT22;8539;53.188;8.696;2022-08-19T01:28:23;17.40;99.90
16846;DHT22;8539;53.188;8.696;2022-08-19T01:30:53;17.40;99.90
16846;DHT22;8539;53.188;8.696;2022-08-19T01:33:20;17.40;99.90
16846;DHT22;8539;53.188;8.696;2022-08-19T01:35:47;17.40;99.90
16846;DHT22;8539;53.188;8.696;2022-08-19T01:38:24;17.40;99.90
16846;DHT22;8539;53.188;8.696;2022-08-19T01:40:50;17.40;99.90
16846;DHT22;8539;53.188;8.696;2022-08-19T01:43:16;17.40;99.90
16846;DHT22;8539;53.188;8.696;2022-08-19T01:45:45;17.40;99.90
16846;DHT22;8539;53.188;8.696;2022-08-19T01:48:12;17.40;99.90
16846;DHT22;8539;53.188;8.696;2022-08-19T01:50:38;17.40;99.90
16846;DHT22;8539;53.188;8.696;2022-08-19T01:53:07;17.40;99.90
16846;DHT22;8539;53.188;8.696;2022-08-19T01:55:39;17.40;99.90
16846;DHT22;8539;53.188;8.696;2022-08-19T01:58:12;17.40;99.90
16846;DHT22;8539;53.188;8.696;2022-08-19T02:00:39;17.50;99.90
16846;DHT22;8539;53.188;8.696;2022-08-19T02:03:05;17.50;99.90
16846;DHT22;8539;53.188;8.696;2022-08-19T02:05:32;17.40;99.90
16846;DHT22;8539;53.188;8.696;2022-08-19T02:07:59;17.40;99.90
16846;DHT22;8539;53.188;8.696;2022-08-19T02:10:25;17.50;99.90
16846;DHT22;8539;53.188;8.696;2022-08-19T02:12:52;17.50;99.90
16846;DHT22;8539;53.188;8.696;2022-08-19T02:15:19;17.50;99.90
16846;DHT22;8539;53.188;8.696;2022-08-19T02:17:46;17.50;99.90
16846;DHT22;8539;53.188;8.696;2022-08-19T02:20:14;17.50;99.90
16846;DHT22;8539;53.188;8.696;2022-08-19T02:22:41;17.50;99.90
16846;DHT22;8539;53.188;8.696;2022-08-19T02:25:12;17.40;99.90
16846;DHT22;8539;53.188;8.696;2022-08-19T02:27:40;17.40;99.90
16846;DHT22;8539;53.188;8.696;2022-08-19T02:30:10;17.40;99.90
16846;DHT22;8539;53.188;8.696;2022-08-19T02:32:37;17.40;99.90
16846;DHT22;8539;53.188;8.696;2022-08-19T02:35:03;17.50;99.90
16846;DHT22;8539;53.188;8.696;2022-08-19T02:37:30;17.50;99.90
16846;DHT22;8539;53.188;8.696;2022-08-19T02:40:14;17.50;99.90
16846;DHT22;8539;53.188;8.696;2022-08-19T02:42:44;17.50;99.90
16846;DHT22;8539;53.188;8.696;2022-08-19T02:45:14;17.50;99.90
16846;DHT22;8539;53.188;8.696;2022-08-19T02:47:41;17.50;99.90
16846;DHT22;8539;53.188;8.696;2022-08-19T02:50:07;17.50;99.90
16846;DHT22;8539;53.188;8.696;2022-08-19T02:52:34;17.50;99.90
16846;DHT22;8539;53.188;8.696;2022-08-19T02:55:01;17.50;99.90
16846;DHT22;8539;53.188;8.696;2022-08-19T02:57:27;17.50;99.90
16846;DHT22;8539;53.188;8.696;2022-08-19T02:59:56;17.50;99.90
16846;DHT22;8539;53.188;8.696;2022-08-19T03:02:23;17.50;99.90
16846;DHT22;8539;53.188;8.696;2022-08-19T03:04:49;17.50;99.90
16846;DHT22;8539;53.188;8.696;2022-08-19T03:07:16;17.50;99.90
16846;DHT22;8539;53.188;8.696;2022-08-19T03:09:42;17.50;99.90
16846;DHT22;8539;53.188;8.696;2022-08-19T03:12:09;17.50;99.90
16846;DHT22;8539;53.188;8.696;2022-08-19T03:14:36;17.50;99.90
16846;DHT22;8539;53.188;8.696;2022-08-19T03:17:04;17.50;99.90
16846;DHT22;8539;53.188;8.696;2022-08-19T03:19:30;17.50;99.90
16846;DHT22;8539;53.188;8.696;2022-08-19T03:21:58;17.50;99.90
16846;DHT22;8539;53.188;8.696;2022-08-19T03:24:24;17.40;99.90
16846;DHT22;8539;53.188;8.696;2022-08-19T03:26:54;17.40;99.90
16846;DHT22;8539;53.188;8.696;2022-08-19T03:29:27;17.40;99.90
16846;DHT22;8539;53.188;8.696;2022-08-19T03:31:53;17.40;99.90
16846;DHT22;8539;53.188;8.696;2022-08-19T03:34:24;17.40;99.90
16846;DHT22;8539;53.188;8.696;2022-08-19T03:36:56;17.40;99.90
16846;DHT22;8539;53.188;8.696;2022-08-19T03:39:24;17.30;99.90
16846;DHT22;8539;53.188;8.696;2022-08-19T03:41:51;17.30;99.90
16846;DHT22;8539;53.188;8.696;2022-08-19T03:44:20;17.30;99.90
16846;DHT22;8539;53.188;8.696;2022-08-19T03:46:55;17.30;99.90
16846;DHT22;8539;53.188;8.696;2022-08-19T03:49:24;17.20;99.90
16846;DHT22;8539;53.188;8.696;2022-08-19T03:51:50;17.20;99.90
16846;DHT22;8539;53.188;8.696;2022-08-19T03:54:20;17.20;99.90
16846;DHT22;8539;53.188;8.696;2022-08-19T03:56:49;17.20;99.90
16846;DHT22;8539;53.188;8.696;2022-08-19T03:59:22;17.10;99.90
16846;DHT22;8539;53.188;8.696;2022-08-19T04:01:55;17.10;99.90
16846;DHT22;8539;53.188;8.696;2022-08-19T04:04:23;17.10;99.90
16846;DHT22;8539;53.188;8.696;2022-08-19T04:06:49;17.10;99.90
16846;DHT22;8539;53.188;8.696;2022-08-19T04:09:18;17.00;99.90
16846;DHT22;8539;53.188;8.696;2022-08-19T04:11:51;17.00;99.90
16846;DHT22;8539;53.188;8.696;2022-08-19T04:14:24;17.00;99.90
16846;DHT22;8539;53.188;8.696;2022-08-19T04:16:51;17.00;99.90
16846;DHT22;8539;53.188;8.696;2022-08-19T04:19:20;17.00;99.90
16846;DHT22;8539;53.188;8.696;2022-08-19T04:21:48;16.90;99.90
16846;DHT22;8539;53.188;8.696;2022-08-19T04:24:15;16.90;99.90
16846;DHT22;8539;53.188;8.696;2022-08-19T04:26:41;16.90;99.90
16846;DHT22;8539;53.188;8.696;2022-08-19T04:29:21;16.90;99.90
16846;DHT22;8539;53.188;8.696;2022-08-19T04:31:51;16.80;99.90
16846;DHT22;8539;53.188;8.696;2022-08-19T04:34:25;16.80;99.90
16846;DHT22;8539;53.188;8.696;2022-08-19T04:36:56;16.80;99.90
16846;DHT22;8539;53.188;8.696;2022-08-19T04:39:29;16.80;99.90
16846;DHT22;8539;53.188;8.696;2022-08-19T04:42:16;16.80;99.90
16846;DHT22;8539;53.188;8.696;2022-08-19T04:45:03;16.80;99.90
16846;DHT22;8539;53.188;8.696;2022-08-19T04:47:31;16.80;99.90
16846;DHT22;8539;53.188;8.696;2022-08-19T04:49:59;16.80;99.90
16846;DHT22;8539;53.188;8.696;2022-08-19T04:52:25;16.80;99.90
16846;DHT22;8539;53.188;8.696;2022-08-19T04:54:51;16.70;99.90
16846;DHT22;8539;53.188;8.696;2022-08-19T04:57:17;16.70;99.90
16846;DHT22;8539;53.188;8.696;2022-08-19T04:59:44;16.80;99.90
16846;DHT22;8539;53.188;8.696;2022-08-19T05:02:10;16.80;99.90
16846;DHT22;8539;53.188;8.696;2022-08-19T05:04:37;16.80;99.90
16846;DHT22;8539;53.188;8.696;2022-08-19T05:07:06;16.80;99.90
16846;DHT22;8539;53.188;8.696;2022-08-19T05:09:34;16.80;99.90
16846;DHT22;8539;53.188;8.696;2022-08-19T05:12:00;16.80;99.90
16846;DHT22;8539;53.188;8.696;2022-08-19T05:14:27;16.80;99.90
16846;DHT22;8539;53.188;8.696;2022-08-19T05:16:53;16.80;99.90
16846;DHT22;8539;53.188;8.696;2022-08-19T05:19:19;16.80;99.90
16846;DHT22;8539;53.188;8.696;2022-08-19T05:22:04;16.80;99.90
16846;DHT22;8539;53.188;8.696;2022-08-19T05:24:48;16.80;99.90
16846;DHT22;8539;53.188;8.696;2022-08-19T05:27:15;16.80;99.90
16846;DHT22;8539;53.188;8.696;2022-08-19T05:29:41;16.80;99.90
16846;DHT22;8539;53.188;8.696;2022-08-19T05:32:07;16.80;99.90
16846;DHT22;8539;53.188;8.696;2022-08-19T05:34:37;16.80;99.90
16846;DHT22;8539;53.188;8.696;2022-08-19T05:37:05;16.80;99.90
16846;DHT22;8539;53.188;8.696;2022-08-19T05:39:35;16.80;99.90
16846;DHT22;8539;53.188;8.696;2022-08-19T05:42:08;16.90;99.90
16846;DHT22;8539;53.188;8.696;2022-08-19T05:44:38;16.90;99.90
16846;DHT22;8539;53.188;8.696;2022-08-19T05:47:06;16.90;99.90
16846;DHT22;8539;53.188;8.696;2022-08-19T05:49:34;16.90;99.90
16846;DHT22;8539;53.188;8.696;2022-08-19T05:52:08;17.00;99.90
16846;DHT22;8539;53.188;8.696;2022-08-19T05:54:38;17.10;99.90
16846;DHT22;8539;53.188;8.696;2022-08-19T05:57:06;17.20;99.90
16846;DHT22;8539;53.188;8.696;2022-08-19T05:59:32;17.20;99.90
16846;DHT22;8539;53.188;8.696;2022-08-19T06:02:03;17.30;99.90
16846;DHT22;8539;53.188;8.696;2022-08-19T06:04:29;17.40;99.90
16846;DHT22;8539;53.188;8.696;2022-08-19T06:06:56;17.50;99.90
16846;DHT22;8539;53.188;8.696;2022-08-19T06:09:22;17.50;99.90
16846;DHT22;8539;53.188;8.696;2022-08-19T06:11:54;17.50;99.90
16846;DHT22;8539;53.188;8.696;2022-08-19T06:14:23;17.50;99.90
16846;DHT22;8539;53.188;8.696;2022-08-19T06:16:50;17.50;99.90
16846;DHT22;8539;53.188;8.696;2022-08-19T06:19:21;17.60;99.90
16846;DHT22;8539;53.188;8.696;2022-08-19T06:21:51;17.60;99.90
16846;DHT22;8539;53.188;8.696;2022-08-19T06:24:21;17.70;99.90
16846;DHT22;8539;53.188;8.696;2022-08-19T06:26:51;17.70;99.90
16846;DHT22;8539;53.188;8.696;2022-08-19T06:29:21;18.10;99.90
16846;DHT22;8539;53.188;8.696;2022-08-19T06:31:50;19.00;99.90
16846;DHT22;8539;53.188;8.696;2022-08-19T06:34:17;19.80;99.90
16846;DHT22;8539;53.188;8.696;2022-08-19T06:36:50;20.00;99.90
16846;DHT22;8539;53.188;8.696;2022-08-19T06:39:25;20.00;99.90
16846;DHT22;8539;53.188;8.696;2022-08-19T06:41:56;19.90;99.90
16846;DHT22;8539;53.188;8.696;2022-08-19T06:44:24;19.80;99.90
16846;DHT22;8539;53.188;8.696;2022-08-19T06:46:53;20.10;99.90
16846;DHT22;8539;53.188;8.696;2022-08-19T06:49:20;20.10;99.90
16846;DHT22;8539;53.188;8.696;2022-08-19T06:51:47;20.10;99.90
16846;DHT22;8539;53.188;8.696;2022-08-19T06:54:15;20.30;99.90
16846;DHT22;8539;53.188;8.696;2022-08-19T06:56:42;20.60;99.90
16846;DHT22;8539;53.188;8.696;2022-08-19T06:59:11;20.90;99.90
16846;DHT22;8539;53.188;8.696;2022-08-19T07:01:47;21.00;99.90
16846;DHT22;8539;53.188;8.696;2022-08-19T07:04:16;21.00;99.90
16846;DHT22;8539;53.188;8.696;2022-08-19T07:06:43;21.00;99.90
16846;DHT22;8539;53.188;8.696;2022-08-19T07:09:11;21.00;99.90
16846;DHT22;8539;53.188;8.696;2022-08-19T07:11:38;21.00;99.90
16846;DHT22;8539;53.188;8.696;2022-08-19T07:14:05;21.10;99.90
16846;DHT22;8539;53.188;8.696;2022-08-19T07:16:32;21.10;99.90
16846;DHT22;8539;53.188;8.696;2022-08-19T07:18:58;21.20;99.90
16846;DHT22;8539;53.188;8.696;2022-08-19T07:21:27;21.30;99.90
16846;DHT22;8539;53.188;8.696;2022-08-19T07:23:58;21.30;99.90
16846;DHT22;8539;53.188;8.696;2022-08-19T07:26:28;21.40;99.90
16846;DHT22;8539;53.188;8.696;2022-08-19T07:28:56;21.30;99.90
16846;DHT22;8539;53.188;8.696;2022-08-19T07:31:25;21.30;99.90
16846;DHT22;8539;53.188;8.696;2022-08-19T07:33:54;21.30;99.90
16846;DHT22;8539;53.188;8.696;2022-08-19T07:36:25;21.30;99.90
16846;DHT22;8539;53.188;8.696;2022-08-19T07:38:57;21.40;99.90
16846;DHT22;8539;53.188;8.696;2022-08-19T07:41:27;21.40;99.90
16846;DHT22;8539;53.188;8.696;2022-08-19T07:43:55;21.40;99.90
16846;DHT22;8539;53.188;8.696;2022-08-19T07:46:21;21.50;99.90
16846;DHT22;8539;53.188;8.696;2022-08-19T07:48:49;21.50;99.90
16846;DHT22;8539;53.188;8.696;2022-08-19T07:51:21;21.60;99.90
16846;DHT22;8539;53.188;8.696;2022-08-19T07:53:48;21.60;99.90
16846;DHT22;8539;53.188;8.696;2022-08-19T07:56:19;21.70;99.90
16846;DHT22;8539;53.188;8.696;2022-08-19T07:58:47;21.80;99.90
16846;DHT22;8539;53.188;8.696;2022-08-19T08:01:22;21.90;99.90
16846;DHT22;8539;53.188;8.696;2022-08-19T08:03:52;21.90;99.90
16846;DHT22;8539;53.188;8.696;2022-08-19T08:06:37;22.00;99.90
16846;DHT22;8539;53.188;8.696;2022-08-19T08:09:33;21.90;99.90
16846;DHT22;8539;53.188;8.696;2022-08-19T08:12:05;21.90;99.90
16846;DHT22;8539;53.188;8.696;2022-08-19T08:14:38;21.80;99.90
16846;DHT22;8539;53.188;8.696;2022-08-19T08:17:05;21.80;99.90
16846;DHT22;8539;53.188;8.696;2022-08-19T08:19:32;21.70;99.90
16846;DHT22;8539;53.188;8.696;2022-08-19T08:22:00;21.70;99.90
16846;DHT22;8539;53.188;8.696;2022-08-19T08:24:28;21.60;99.90
16846;DHT22;8539;53.188;8.696;2022-08-19T08:26:58;21.50;99.90
16846;DHT22;8539;53.188;8.696;2022-08-19T08:29:29;21.50;99.90
16846;DHT22;8539;53.188;8.696;2022-08-19T08:31:56;21.40;99.90
16846;DHT22;8539;53.188;8.696;2022-08-19T08:34:22;21.40;99.90
16846;DHT22;8539;53.188;8.696;2022-08-19T08:36:49;21.40;99.90
16846;DHT22;8539;53.188;8.696;2022-08-19T08:39:20;21.40;99.90
16846;DHT22;8539;53.188;8.696;2022-08-19T08:42:17;21.40;99.90
16846;DHT22;8539;53.188;8.696;2022-08-19T08:45:00;21.50;99.90
16846;DHT22;8539;53.188;8.696;2022-08-19T08:47:32;21.60;99.90
16846;DHT22;8539;53.188;8.696;2022-08-19T08:50:05;21.70;99.90
16846;DHT22;8539;53.188;8.696;2022-08-19T08:52:36;21.90;99.90
16846;DHT22;8539;53.188;8.696;2022-08-19T08:55:23;22.10;99.90
16846;DHT22;8539;53.188;8.696;2022-08-19T08:58:03;22.30;99.90
16846;DHT22;8539;53.188;8.696;2022-08-19T09:00:38;22.60;99.90
16846;DHT22;8539;53.188;8.696;2022-08-19T09:03:29;22.90;99.90
16846;DHT22;8539;53.188;8.696;2022-08-19T09:06:04;23.10;99.90
16846;DHT22;8539;53.188;8.696;2022-08-19T09:08:40;23.10;99.90
16846;DHT22;8539;53.188;8.696;2022-08-19T09:11:19;23.20;99.90
16846;DHT22;8539;53.188;8.696;2022-08-19T09:14:55;23.30;99.90
16846;DHT22;8539;53.188;8.696;2022-08-19T09:16:57;23.60;99.90
16846;DHT22;8539;53.188;8.696;2022-08-19T09:19:24;23.80;99.90
16846;DHT22;8539;53.188;8.696;2022-08-19T09:21:50;24.10;99.90
16846;DHT22;8539;53.188;8.696;2022-08-19T09:24:16;24.30;99.90
16846;DHT22;8539;53.188;8.696;2022-08-19T09:26:43;24.50;99.90
16846;DHT22;8539;53.188;8.696;2022-08-19T09:29:10;24.80;99.80
16846;DHT22;8539;53.188;8.696;2022-08-19T09:31:36;25.20;99.70
16846;DHT22;8539;53.188;8.696;2022-08-19T09:34:03;25.60;99.40
16846;DHT22;8539;53.188;8.696;2022-08-19T09:36:32;25.90;98.70
16846;DHT22;8539;53.188;8.696;2022-08-19T09:39:05;26.10;98.10
16846;DHT22;8539;53.188;8.696;2022-08-19T09:41:32;26.30;97.50
16846;DHT22;8539;53.188;8.696;2022-08-19T09:43:58;26.50;97.00
16846;DHT22;8539;53.188;8.696;2022-08-19T09:46:27;26.70;96.40
16846;DHT22;8539;53.188;8.696;2022-08-19T09:48:56;26.90;95.40
16846;DHT22;8539;53.188;8.696;2022-08-19T09:51:25;27.10;94.80
16846;DHT22;8539;53.188;8.696;2022-08-19T09:53:55;27.20;93.90
16846;DHT22;8539;53.188;8.696;2022-08-19T09:56:24;27.20;93.00
16846;DHT22;8539;53.188;8.696;2022-08-19T09:58:50;27.30;92.70
16846;DHT22;8539;53.188;8.696;2022-08-19T10:01:25;27.40;92.50
16846;DHT22;8539;53.188;8.696;2022-08-19T10:03:55;27.50;92.10
16846;DHT22;8539;53.188;8.696;2022-08-19T10:06:23;27.60;91.90
16846;DHT22;8539;53.188;8.696;2022-08-19T10:08:50;27.60;91.50
16846;DHT22;8539;53.188;8.696;2022-08-19T10:11:19;27.60;91.20
16846;DHT22;8539;53.188;8.696;2022-08-19T10:13:46;27.60;90.90
16846;DHT22;8539;53.188;8.696;2022-08-19T10:16:18;27.60;90.60
16846;DHT22;8539;53.188;8.696;2022-08-19T10:18:45;27.70;90.30
16846;DHT22;8539;53.188;8.696;2022-08-19T10:21:32;27.80;89.40
16846;DHT22;8539;53.188;8.696;2022-08-19T10:24:01;28.00;88.20
16846;DHT22;8539;53.188;8.696;2022-08-19T10:26:33;28.20;87.90
16846;DHT22;8539;53.188;8.696;2022-08-19T10:28:59;28.40;87.20
16846;DHT22;8539;53.188;8.696;2022-08-19T10:31:28;28.60;86.70
16846;DHT22;8539;53.188;8.696;2022-08-19T10:33:55;28.70;84.90
16846;DHT22;8539;53.188;8.696;2022-08-19T10:36:29;28.80;80.90
16846;DHT22;8539;53.188;8.696;2022-08-19T10:38:59;28.80;80.50
16846;DHT22;8539;53.188;8.696;2022-08-19T10:41:29;28.80;80.40
16846;DHT22;8539;53.188;8.696;2022-08-19T10:43:58;28.70;80.00
16846;DHT22;8539;53.188;8.696;2022-08-19T10:46:26;28.80;80.00
16846;DHT22;8539;53.188;8.696;2022-08-19T10:48:53;28.80;80.00
16846;DHT22;8539;53.188;8.696;2022-08-19T10:51:20;28.90;79.80
16846;DHT22;8539;53.188;8.696;2022-08-19T10:54:05;28.90;79.50
16846;DHT22;8539;53.188;8.696;2022-08-19T10:56:33;28.90;78.80
16846;DHT22;8539;53.188;8.696;2022-08-19T10:59:29;28.80;78.10
16846;DHT22;8539;53.188;8.696;2022-08-19T11:01:59;28.80;76.70
16846;DHT22;8539;53.188;8.696;2022-08-19T11:04:26;28.70;75.40
16846;DHT22;8539;53.188;8.696;2022-08-19T11:06:52;28.70;73.30
16846;DHT22;8539;53.188;8.696;2022-08-19T11:09:22;28.50;73.10
16846;DHT22;8539;53.188;8.696;2022-08-19T11:11:52;28.40;72.50
16846;DHT22;8539;53.188;8.696;2022-08-19T11:14:20;28.30;73.00
16846;DHT22;8539;53.188;8.696;2022-08-19T11:16:48;28.30;73.00
16846;DHT22;8539;53.188;8.696;2022-08-19T11:19:14;28.40;72.90
16846;DHT22;8539;53.188;8.696;2022-08-19T11:21:45;28.40;72.70
16846;DHT22;8539;53.188;8.696;2022-08-19T11:24:16;28.40;72.90
16846;DHT22;8539;53.188;8.696;2022-08-19T11:26:43;28.50;72.60
16846;DHT22;8539;53.188;8.696;2022-08-19T11:29:11;28.50;71.90
16846;DHT22;8539;53.188;8.696;2022-08-19T11:31:42;28.50;71.00
16846;DHT22;8539;53.188;8.696;2022-08-19T11:34:12;28.40;70.80
16846;DHT22;8539;53.188;8.696;2022-08-19T11:36:41;28.50;69.80
16846;DHT22;8539;53.188;8.696;2022-08-19T11:39:09;28.60;69.70
16846;DHT22;8539;53.188;8.696;2022-08-19T11:41:36;28.70;69.30
16846;DHT22;8539;53.188;8.696;2022-08-19T11:44:03;28.70;69.20
16846;DHT22;8539;53.188;8.696;2022-08-19T11:46:31;28.80;69.20
16846;DHT22;8539;53.188;8.696;2022-08-19T11:48:58;28.70;68.90
16846;DHT22;8539;53.188;8.696;2022-08-19T11:51:25;28.80;69.00
16846;DHT22;8539;53.188;8.696;2022-08-19T11:53:54;28.80;68.70
16846;DHT22;8539;53.188;8.696;2022-08-19T11:56:21;28.70;68.70
16846;DHT22;8539;53.188;8.696;2022-08-19T11:58:47;28.70;68.60
16846;DHT22;8539;53.188;8.696;2022-08-19T12:01:16;28.70;68.40
16846;DHT22;8539;53.188;8.696;2022-08-19T12:03:48;28.60;68.30
16846;DHT22;8539;53.188;8.696;2022-08-19T12:06:20;28.40;68.30
16846;DHT22;8539;53.188;8.696;2022-08-19T12:08:50;28.40;68.30
16846;DHT22;8539;53.188;8.696;2022-08-19T12:11:16;28.30;68.00
16846;DHT22;8539;53.188;8.696;2022-08-19T12:13:47;28.20;67.80
16846;DHT22;8539;53.188;8.696;2022-08-19T12:16:26;28.10;67.30
16846;DHT22;8539;53.188;8.696;2022-08-19T12:18:57;27.90;66.80
16846;DHT22;8539;53.188;8.696;2022-08-19T12:21:29;28.00;66.50
16846;DHT22;8539;53.188;8.696;2022-08-19T12:23:58;28.00;66.60
16846;DHT22;8539;53.188;8.696;2022-08-19T12:26:26;27.90;66.50
16846;DHT22;8539;53.188;8.696;2022-08-19T12:28:53;27.90;66.50
16846;DHT22;8539;53.188;8.696;2022-08-19T12:31:19;27.80;66.70
16846;DHT22;8539;53.188;8.696;2022-08-19T12:33:50;27.70;66.60
16846;DHT22;8539;53.188;8.696;2022-08-19T12:36:18;27.60;65.70
16846;DHT22;8539;53.188;8.696;2022-08-19T12:38:44;27.50;64.80
16846;DHT22;8539;53.188;8.696;2022-08-19T12:41:13;27.60;64.50
16846;DHT22;8539;53.188;8.696;2022-08-19T12:43:45;27.60;64.60
16846;DHT22;8539;53.188;8.696;2022-08-19T12:46:12;27.70;64.50
16846;DHT22;8539;53.188;8.696;2022-08-19T12:48:40;27.70;64.90
16846;DHT22;8539;53.188;8.696;2022-08-19T12:51:10;27.70;65.80
16846;DHT22;8539;53.188;8.696;2022-08-19T12:53:42;27.80;66.00
16846;DHT22;8539;53.188;8.696;2022-08-19T12:56:10;27.80;66.20
16846;DHT22;8539;53.188;8.696;2022-08-19T12:58:37;27.80;66.30
16846;DHT22;8539;53.188;8.696;2022-08-19T13:01:13;27.90;66.60
16846;DHT22;8539;53.188;8.696;2022-08-19T13:03:41;27.90;66.60
16846;DHT22;8539;53.188;8.696;2022-08-19T13:06:13;28.00;66.40
16846;DHT22;8539;53.188;8.696;2022-08-19T13:08:45;28.00;66.30
16846;DHT22;8539;53.188;8.696;2022-08-19T13:11:14;28.10;66.20
16846;DHT22;8539;53.188;8.696;2022-08-19T13:13:42;28.10;65.90
16846;DHT22;8539;53.188;8.696;2022-08-19T13:16:10;28.20;65.50
16846;DHT22;8539;53.188;8.696;2022-08-19T13:18:38;28.20;64.80
16846;DHT22;8539;53.188;8.696;2022-08-19T13:21:07;28.20;64.40
16846;DHT22;8539;53.188;8.696;2022-08-19T13:23:35;28.20;64.20
16846;DHT22;8539;53.188;8.696;2022-08-19T13:26:04;28.20;64.10
16846;DHT22;8539;53.188;8.696;2022-08-19T13:28:32;28.20;64.10
16846;DHT22;8539;53.188;8.696;2022-08-19T13:31:19;28.20;64.60
16846;DHT22;8539;53.188;8.696;2022-08-19T13:34:04;28.30;65.20
16846;DHT22;8539;53.188;8.696;2022-08-19T13:36:32;28.30;66.10
16846;DHT22;8539;53.188;8.696;2022-08-19T13:39:04;28.30;66.60
16846;DHT22;8539;53.188;8.696;2022-08-19T13:41:31;28.30;66.90
16846;DHT22;8539;53.188;8.696;2022-08-19T13:43:57;28.20;67.40
16846;DHT22;8539;53.188;8.696;2022-08-19T13:46:24;28.20;67.60
16846;DHT22;8539;53.188;8.696;2022-08-19T13:48:55;28.20;68.10
16846;DHT22;8539;53.188;8.696;2022-08-19T13:51:22;28.20;68.40
16846;DHT22;8539;53.188;8.696;2022-08-19T13:53:49;28.30;68.70
16846;DHT22;8539;53.188;8.696;2022-08-19T13:56:18;28.40;68.90
16846;DHT22;8539;53.188;8.696;2022-08-19T13:58:45;28.40;69.20
16846;DHT22;8539;53.188;8.696;2022-08-19T14:01:12;28.40;69.40
16846;DHT22;8539;53.188;8.696;2022-08-19T14:03:49;28.50;69.40
16846;DHT22;8539;53.188;8.696;2022-08-19T14:06:15;28.50;69.50
16846;DHT22;8539;53.188;8.696;2022-08-19T14:08:47;28.60;69.80
16846;DHT22;8539;53.188;8.696;2022-08-19T14:11:13;28.70;69.90
16846;DHT22;8539;53.188;8.696;2022-08-19T14:13:40;28.70;69.80
16846;DHT22;8539;53.188;8.696;2022-08-19T14:16:08;28.70;69.80
16846;DHT22;8539;53.188;8.696;2022-08-19T14:18:35;28.70;70.10
16846;DHT22;8539;53.188;8.696;2022-08-19T14:21:02;28.80;70.30
16846;DHT22;8539;53.188;8.696;2022-08-19T14:23:31;28.90;70.40
16846;DHT22;8539;53.188;8.696;2022-08-19T14:26:11;28.90;70.40
16846;DHT22;8539;53.188;8.696;2022-08-19T14:28:42;28.90;70.90
16846;DHT22;8539;53.188;8.696;2022-08-19T14:31:12;29.00;71.10
16846;DHT22;8539;53.188;8.696;2022-08-19T14:33:40;29.10;71.50
16846;DHT22;8539;53.188;8.696;2022-08-19T14:36:07;29.10;71.40
16846;DHT22;8539;53.188;8.696;2022-08-19T14:38:33;29.00;71.50
16846;DHT22;8539;53.188;8.696;2022-08-19T14:41:15;29.10;71.80
16846;DHT22;8539;53.188;8.696;2022-08-19T14:43:47;29.20;72.00
16846;DHT22;8539;53.188;8.696;2022-08-19T14:46:16;29.20;72.30
16846;DHT22;8539;53.188;8.696;2022-08-19T14:48:42;29.30;72.30
16846;DHT22;8539;53.188;8.696;2022-08-19T14:51:09;29.30;72.70
16846;DHT22;8539;53.188;8.696;2022-08-19T14:53:36;29.30;72.80
16846;DHT22;8539;53.188;8.696;2022-08-19T14:56:11;29.30;72.60
16846;DHT22;8539;53.188;8.696;2022-08-19T14:58:44;29.30;72.60
16846;DHT22;8539;53.188;8.696;2022-08-19T15:01:11;29.20;72.60
16846;DHT22;8539;53.188;8.696;2022-08-19T15:03:39;29.10;72.50
16846;DHT22;8539;53.188;8.696;2022-08-19T15:06:07;29.00;72.40
16846;DHT22;8539;53.188;8.696;2022-08-19T15:08:35;29.00;72.40
16846;DHT22;8539;53.188;8.696;2022-08-19T15:11:08;29.00;72.70
16846;DHT22;8539;53.188;8.696;2022-08-19T15:13:35;29.00;73.00
16846;DHT22;8539;53.188;8.696;2022-08-19T15:16:02;29.10;73.00
16846;DHT22;8539;53.188;8.696;2022-08-19T15:18:28;29.10;73.00
16846;DHT22;8539;53.188;8.696;2022-08-19T15:20:55;29.10;72.90
16846;DHT22;8539;53.188;8.696;2022-08-19T15:23:22;29.20;72.70
16846;DHT22;8539;53.188;8.696;2022-08-19T15:25:49;29.20;72.40
16846;DHT22;8539;53.188;8.696;2022-08-19T15:28:19;29.10;71.80
16846;DHT22;8539;53.188;8.696;2022-08-19T15:30:45;29.10;71.30
16846;DHT22;8539;53.188;8.696;2022-08-19T15:33:11;29.00;71.00
16846;DHT22;8539;53.188;8.696;2022-08-19T15:35:41;28.90;70.50
16846;DHT22;8539;53.188;8.696;2022-08-19T15:38:08;28.80;70.10
16846;DHT22;8539;53.188;8.696;2022-08-19T15:40:34;28.80;69.80
16846;DHT22;8539;53.188;8.696;2022-08-19T15:43:01;28.80;69.70
16846;DHT22;8539;53.188;8.696;2022-08-19T15:45:27;28.70;69.80
16846;DHT22;8539;53.188;8.696;2022-08-19T15:47:59;28.70;70.00
16846;DHT22;8539;53.188;8.696;2022-08-19T15:50:25;28.60;70.40
16846;DHT22;8539;53.188;8.696;2022-08-19T15:52:55;28.60;70.70
16846;DHT22;8539;53.188;8.696;2022-08-19T15:55:35;28.50;71.20
16846;DHT22;8539;53.188;8.696;2022-08-19T15:58:07;28.50;71.50
16846;DHT22;8539;53.188;8.696;2022-08-19T16:00:52;28.50;71.50